createdAt,value
2018-09-26T00:00:26.322Z,22.6
2018-09-26T00:01:15.797Z,22.6
2018-09-26T00:02:05.062Z,22.6
2018-09-26T00:02:55.621Z,22.6
2018-09-26T00:03:45.945Z,22.6
2018-09-26T00:04:35.500Z,22.6
2018-09-26T00:05:26.200Z,22.6
2018-09-26T00:06:15.602Z,22.6
2018-09-26T00:07:06.482Z,22.6
2018-09-26T00:07:56.439Z,22.6
2018-09-26T00:08:46.062Z,22.6
2018-09-26T00:09:37.535Z,22.6
2018-09-26T00:10:26.949Z,22.6
2018-09-26T00:11:15.950Z,22.6
2018-09-26T00:12:07.317Z,22.6
2018-09-26T00:12:57.157Z,22.6
2018-09-26T00:13:46.399Z,22.6
2018-09-26T00:14:36.699Z,22.6
2018-09-26T00:15:27.145Z,22.6
2018-09-26T00:16:17.194Z,22.6
2018-09-26T00:17:06.651Z,22.6
2018-09-26T00:17:56.949Z,22.6
2018-09-26T00:18:47.135Z,22.6
2018-09-26T00:19:37.111Z,22.6
2018-09-26T00:20:26.134Z,22.5
2018-09-26T00:21:17.104Z,22.6
2018-09-26T00:22:06.745Z,22.6
2018-09-26T00:22:56.879Z,22.6
2018-09-26T00:23:47.134Z,22.6
2018-09-26T00:24:36.781Z,22.6
2018-09-26T00:25:27.874Z,22.6
2018-09-26T00:26:17.503Z,22.5
2018-09-26T00:27:07.440Z,22.6
2018-09-26T00:27:57.254Z,22.6
2018-09-26T00:28:48.143Z,22.6
2018-09-26T00:29:38.492Z,22.6
2018-09-26T00:30:28.281Z,22.6
2018-09-26T00:31:18.650Z,22.6
2018-09-26T00:32:07.886Z,22.6
2018-09-26T00:32:57.340Z,22.6
2018-09-26T00:33:48.551Z,22.5
2018-09-26T00:34:38.348Z,22.6
2018-09-26T00:35:28.371Z,22.6
2018-09-26T00:36:20.559Z,22.6
2018-09-26T00:55:31.917Z,22.6
2018-09-26T00:56:22.130Z,22.5
2018-09-26T00:57:11.170Z,22.5
2018-09-26T00:58:01.456Z,22.6
2018-09-26T00:58:51.611Z,22.5
2018-09-26T00:59:42.140Z,22.5
2018-09-26T01:00:34.316Z,22.5
2018-09-26T01:01:22.824Z,22.5
2018-09-26T01:02:12.901Z,22.5
2018-09-26T01:03:02.672Z,22.5
2018-09-26T01:03:52.477Z,22.5
2018-09-26T01:04:42.479Z,22.5
2018-09-26T01:05:33.842Z,22.5
2018-09-26T01:06:21.819Z,22.5
2018-09-26T01:07:12.759Z,22.5
2018-09-26T01:08:03.611Z,22.5
2018-09-26T01:08:52.801Z,22.6
2018-09-26T01:09:43.204Z,22.5
2018-09-26T01:10:33.446Z,22.5
2018-09-26T01:11:23.872Z,22.5
2018-09-26T01:12:12.899Z,22.5
2018-09-26T01:13:02.901Z,22.5
2018-09-26T01:13:53.688Z,22.5
2018-09-26T01:14:43.866Z,22.5
2018-09-26T01:15:33.267Z,22.5
2018-09-26T01:16:24.243Z,22.5
2018-09-26T01:17:14.041Z,22.5
2018-09-26T01:18:04.071Z,22.5
2018-09-26T01:18:54.160Z,22.5
2018-09-26T01:19:44.185Z,22.5
2018-09-26T01:20:34.484Z,22.5
2018-09-26T01:21:23.769Z,22.5
2018-09-26T01:22:14.658Z,22.5
2018-09-26T01:23:04.169Z,22.4
2018-09-26T01:23:54.183Z,22.4
2018-09-26T01:24:44.789Z,22.5
2018-09-26T01:25:35.283Z,22.5
2018-09-26T01:26:24.473Z,22.5
2018-09-26T01:27:14.363Z,22.5
2018-09-26T01:28:04.611Z,22.4
2018-09-26T01:28:54.545Z,22.4
2018-09-26T01:29:45.187Z,22.4
2018-09-26T01:30:34.435Z,22.5
2018-09-26T01:31:25.933Z,22.4
2018-09-26T01:32:15.010Z,22.5
2018-09-26T01:33:04.045Z,22.5
2018-09-26T01:33:55.259Z,22.4
2018-09-26T01:34:45.225Z,22.5
2018-09-26T01:35:35.600Z,22.5
2018-09-26T01:36:25.980Z,22.5
2018-09-26T01:37:15.810Z,22.5
2018-09-26T01:38:04.720Z,22.4
2018-09-26T01:38:55.017Z,22.4
2018-09-26T01:39:45.115Z,22.4
2018-09-26T01:40:34.885Z,22.4
2018-09-26T01:41:26.315Z,22.4
2018-09-26T01:42:15.871Z,22.4
2018-09-26T01:43:06.452Z,22.4
2018-09-26T01:43:55.130Z,22.4
2018-09-26T01:44:44.923Z,22.4
2018-09-26T01:45:35.500Z,22.4
2018-09-26T01:46:25.407Z,22.4
2018-09-26T01:47:16.477Z,22.4
2018-09-26T01:48:05.522Z,22.4
2018-09-26T01:48:56.057Z,22.4
2018-09-26T01:49:46.127Z,22.4
2018-09-26T01:50:36.134Z,22.4
2018-09-26T01:51:26.579Z,22.4
2018-09-26T01:52:16.522Z,22.5
2018-09-26T01:53:06.659Z,22.4
2018-09-26T01:53:56.417Z,22.4
2018-09-26T01:54:45.621Z,22.4
2018-09-26T01:55:36.887Z,22.4
2018-09-26T01:56:26.123Z,22.4
2018-09-26T01:57:17.261Z,22.4
2018-09-26T01:58:07.066Z,22.4
2018-09-26T01:58:57.091Z,22.4
2018-09-26T01:59:46.880Z,22.4
2018-09-26T02:00:36.601Z,22.4
2018-09-26T02:01:27.574Z,22.4
2018-09-26T02:02:17.130Z,22.4
2018-09-26T02:03:07.898Z,22.4
2018-09-26T02:03:57.443Z,22.4
2018-09-26T02:04:46.411Z,22.4
2018-09-26T02:05:37.042Z,22.4
2018-09-26T02:06:27.660Z,22.4
2018-09-26T02:07:17.355Z,22.4
2018-09-26T02:08:08.626Z,22.4
2018-09-26T02:08:56.730Z,22.4
2018-09-26T02:09:47.613Z,22.4
2018-09-26T02:10:37.996Z,22.4
2018-09-26T02:11:26.618Z,22.4
2018-09-26T02:12:17.760Z,22.4
2018-09-26T02:13:08.075Z,22.4
2018-09-26T02:13:58.927Z,22.4
2018-09-26T02:14:48.482Z,22.4
2018-09-26T02:15:38.602Z,22.4
2018-09-26T02:16:28.317Z,22.4
2018-09-26T02:17:18.495Z,22.4
2018-09-26T02:18:08.258Z,22.4
2018-09-26T02:18:57.504Z,22.4
2018-09-26T02:19:48.309Z,22.4
2018-09-26T02:20:37.872Z,22.4
2018-09-26T02:21:29.015Z,22.4
2018-09-26T02:22:19.366Z,22.4
2018-09-26T02:23:08.287Z,22.4
2018-09-26T02:23:59.234Z,22.4
2018-09-26T02:24:48.987Z,22.4
2018-09-26T02:25:38.729Z,22.4
2018-09-26T02:26:28.864Z,22.4
2018-09-26T02:27:18.360Z,22.4
2018-09-26T02:28:08.982Z,22.4
2018-09-26T02:29:00.199Z,22.4
2018-09-26T02:29:49.321Z,22.4
2018-09-26T02:30:39.194Z,22.4
2018-09-26T02:31:28.700Z,22.4
2018-09-26T02:32:19.003Z,22.4
2018-09-26T02:33:09.401Z,22.4
2018-09-26T02:34:00.029Z,22.4
2018-09-26T02:34:49.439Z,22.4
2018-09-26T02:35:40.051Z,22.4
2018-09-26T02:36:29.826Z,22.4
2018-09-26T02:37:19.939Z,22.4
2018-09-26T02:38:10.444Z,22.4
2018-09-26T02:38:59.979Z,22.4
2018-09-26T02:39:50.171Z,22.4
2018-09-26T02:40:39.911Z,22.4
2018-09-26T02:41:29.136Z,22.4
2018-09-26T02:42:19.704Z,22.3
2018-09-26T02:43:09.406Z,22.4
2018-09-26T02:44:00.770Z,22.3
2018-09-26T02:44:50.178Z,22.4
2018-09-26T02:45:40.868Z,22.4
2018-09-26T02:46:31.139Z,22.4
2018-09-26T02:47:20.671Z,22.3
2018-09-26T02:48:11.280Z,22.3
2018-09-26T02:49:01.068Z,22.3
2018-09-26T02:49:50.680Z,22.4
2018-09-26T02:50:40.913Z,22.3
2018-09-26T02:51:30.923Z,22.4
2018-09-26T02:52:20.753Z,22.4
2018-09-26T02:53:11.853Z,22.3
2018-09-26T02:54:01.378Z,22.3
2018-09-26T02:54:50.373Z,22.3
2018-09-26T02:55:41.792Z,22.3
2018-09-26T02:56:30.528Z,22.4
2018-09-26T02:57:21.702Z,22.4
2018-09-26T02:58:10.404Z,22.3
2018-09-26T02:59:01.248Z,22.4
2018-09-26T02:59:51.362Z,22.4
2018-09-26T03:00:41.995Z,22.4
2018-09-26T03:01:31.112Z,22.3
2018-09-26T03:02:22.113Z,22.3
2018-09-26T03:03:10.959Z,22.3
2018-09-26T03:04:02.779Z,22.4
2018-09-26T03:04:51.649Z,22.4
2018-09-26T03:05:42.072Z,22.4
2018-09-26T03:06:30.959Z,22.4
2018-09-26T03:07:21.008Z,22.4
2018-09-26T03:08:11.652Z,22.4
2018-09-26T03:09:02.305Z,22.3
2018-09-26T03:09:52.027Z,22.4
2018-09-26T03:10:41.381Z,22.4
2018-09-26T03:11:31.892Z,22.4
2018-09-26T03:12:21.314Z,22.4
2018-09-26T03:13:12.023Z,22.4
2018-09-26T03:14:03.813Z,22.4
2018-09-26T03:14:52.991Z,22.3
2018-09-26T03:15:43.421Z,22.4
2018-09-26T03:16:31.694Z,22.4
2018-09-26T03:17:22.323Z,22.3
2018-09-26T03:18:12.902Z,22.3
2018-09-26T03:19:02.779Z,22.4
2018-09-26T03:19:52.899Z,22.3
2018-09-26T03:20:42.555Z,22.4
2018-09-26T03:21:32.881Z,22.3
2018-09-26T03:22:23.528Z,22.4
2018-09-26T03:23:12.166Z,22.4
2018-09-26T03:24:03.654Z,22.4
2018-09-26T03:24:53.902Z,22.3
2018-09-26T03:25:44.348Z,22.3
2018-09-26T03:26:32.996Z,22.4
2018-09-26T03:27:23.941Z,22.3
2018-09-26T03:28:13.348Z,22.4
2018-09-26T03:29:02.734Z,22.4
2018-09-26T03:29:52.761Z,22.4
2018-09-26T03:30:43.249Z,22.3
2018-09-26T03:31:32.902Z,22.4
2018-09-26T03:32:23.044Z,22.3
2018-09-26T03:33:13.013Z,22.4
2018-09-26T03:34:03.579Z,22.3
2018-09-26T03:34:53.370Z,22.3
2018-09-26T03:35:44.505Z,22.4
2018-09-26T03:36:34.847Z,22.4
2018-09-26T03:37:24.358Z,22.4
2018-09-26T03:38:13.605Z,22.4
2018-09-26T03:39:04.202Z,22.3
2018-09-26T03:39:54.212Z,22.3
2018-09-26T03:40:44.625Z,22.4
2018-09-26T03:41:34.953Z,22.4
2018-09-26T03:42:24.162Z,22.3
2018-09-26T03:43:14.482Z,22.3
2018-09-26T03:44:05.115Z,22.3
2018-09-26T03:44:54.332Z,22.3
2018-09-26T03:45:44.429Z,22.4
2018-09-26T03:46:35.350Z,22.4
2018-09-26T03:47:25.403Z,22.4
2018-09-26T03:48:15.383Z,22.3
2018-09-26T03:49:04.931Z,22.3
2018-09-26T03:49:53.885Z,22.3
2018-09-26T03:50:45.329Z,22.3
2018-09-26T03:51:35.377Z,22.4
2018-09-26T03:52:25.184Z,22.4
2018-09-26T03:53:14.419Z,22.4
2018-09-26T03:54:04.736Z,22.3
2018-09-26T03:54:55.019Z,22.3
2018-09-26T03:55:45.881Z,22.4
2018-09-26T03:56:35.798Z,22.4
2018-09-26T03:57:26.114Z,22.3
2018-09-26T03:58:16.189Z,22.3
2018-09-26T03:59:06.264Z,22.3
2018-09-26T03:59:54.821Z,22.3
2018-09-26T04:00:45.528Z,22.4
2018-09-26T04:01:36.630Z,22.4
2018-09-26T04:02:25.998Z,22.3
2018-09-26T04:03:16.290Z,22.3
2018-09-26T04:04:06.680Z,22.3
2018-09-26T04:04:56.602Z,22.3
2018-09-26T04:05:46.976Z,22.3
2018-09-26T04:06:36.554Z,22.3
2018-09-26T04:07:26.808Z,22.4
2018-09-26T04:08:16.290Z,22.3
2018-09-26T04:09:06.203Z,22.3
2018-09-26T04:09:56.750Z,22.3
2018-09-26T04:10:45.816Z,22.3
2018-09-26T04:11:34.960Z,22.3
2018-09-26T04:12:26.213Z,22.3
2018-09-26T04:13:17.645Z,22.3
2018-09-26T04:14:06.840Z,22.3
2018-09-26T04:14:56.828Z,22.3
2018-09-26T04:15:49.501Z,22.3
2018-09-26T04:16:37.000Z,22.3
2018-09-26T04:17:27.078Z,22.3
2018-09-26T04:18:16.798Z,22.3
2018-09-26T04:19:07.173Z,22.3
2018-09-26T04:19:56.390Z,22.3
2018-09-26T04:20:47.627Z,22.3
2018-09-26T04:21:37.037Z,22.3
2018-09-26T04:22:27.710Z,22.3
2018-09-26T04:23:17.685Z,22.3
2018-09-26T04:24:07.527Z,22.3
2018-09-26T04:24:56.717Z,22.3
2018-09-26T04:25:48.211Z,22.3
2018-09-26T04:26:41.969Z,22.3
2018-09-26T04:27:30.995Z,22.3
2018-09-26T04:28:17.615Z,22.3
2018-09-26T04:29:08.404Z,22.3
2018-09-26T04:29:59.237Z,22.3
2018-09-26T04:30:49.023Z,22.3
2018-09-26T04:31:39.192Z,22.3
2018-09-26T04:32:28.968Z,22.3
2018-09-26T04:33:24.772Z,22.3
2018-09-26T04:34:09.312Z,22.3
2018-09-26T04:34:58.089Z,22.3
2018-09-26T04:35:48.963Z,22.3
2018-09-26T04:36:39.443Z,22.3
2018-09-26T04:37:29.459Z,22.3
2018-09-26T04:38:17.919Z,22.3
2018-09-26T04:39:08.393Z,22.3
2018-09-26T04:39:59.168Z,22.3
2018-09-26T04:40:47.366Z,22.3
2018-09-26T04:41:39.659Z,22.3
2018-09-26T04:42:29.199Z,22.3
2018-09-26T04:43:20.899Z,22.3
2018-09-26T04:44:08.951Z,22.3
2018-09-26T04:44:59.032Z,22.3
2018-09-26T04:45:48.192Z,22.3
2018-09-26T04:46:39.853Z,22.3
2018-09-26T04:47:29.503Z,22.3
2018-09-26T04:48:19.510Z,22.3
2018-09-26T04:49:09.621Z,22.3
2018-09-26T04:49:59.971Z,22.3
2018-09-26T04:50:49.960Z,22.3
2018-09-26T04:51:39.188Z,22.3
2018-09-26T04:52:29.606Z,22.3
2018-09-26T04:53:19.845Z,22.3
2018-09-26T04:54:10.366Z,22.3
2018-09-26T04:54:59.283Z,22.3
2018-09-26T04:55:49.828Z,22.3
2018-09-26T04:56:39.648Z,22.3
2018-09-26T04:57:30.495Z,22.3
2018-09-26T04:58:20.972Z,22.3
2018-09-26T04:59:09.610Z,22.3
2018-09-26T04:59:59.517Z,22.3
2018-09-26T05:00:49.539Z,22.3
2018-09-26T05:01:40.218Z,22.3
2018-09-26T05:02:30.147Z,22.3
2018-09-26T05:03:20.145Z,22.3
2018-09-26T05:04:09.869Z,22.3
2018-09-26T05:04:59.755Z,22.3
2018-09-26T05:05:50.127Z,22.3
2018-09-26T05:06:40.078Z,22.3
2018-09-26T05:07:31.290Z,22.3
2018-09-26T05:24:22.911Z,22.3
2018-09-26T05:25:12.185Z,22.3
2018-09-26T05:26:02.428Z,22.3
2018-09-26T05:26:52.635Z,22.3
2018-09-26T05:27:43.017Z,22.3
2018-09-26T05:28:32.541Z,22.2
2018-09-26T05:29:22.416Z,22.2
2018-09-26T05:30:12.749Z,22.2
2018-09-26T05:31:02.392Z,22.2
2018-09-26T05:31:52.720Z,22.1
2018-09-26T05:32:42.806Z,22.1
2018-09-26T05:33:32.312Z,22.1
2018-09-26T05:34:23.233Z,22.1
2018-09-26T05:35:13.506Z,22.1
2018-09-26T05:36:02.650Z,22.1
2018-09-26T05:36:53.681Z,22.1
2018-09-26T05:37:43.702Z,22.1
2018-09-26T05:38:33.223Z,22.1
2018-09-26T05:39:23.248Z,22.1
2018-09-26T05:40:13.896Z,22.1
2018-09-26T05:41:02.785Z,22.1
2018-09-26T05:41:55.627Z,22.1
2018-09-26T05:42:44.014Z,22
2018-09-26T05:43:34.402Z,22.1
2018-09-26T05:44:23.675Z,22
2018-09-26T05:45:14.609Z,22
2018-09-26T05:46:04.672Z,22
2018-09-26T05:46:54.262Z,22
2018-09-26T05:47:44.868Z,22
2018-09-26T05:48:33.966Z,22
2018-09-26T05:49:25.010Z,22
2018-09-26T05:50:14.790Z,22.1
2018-09-26T05:51:04.717Z,22
2018-09-26T05:51:54.190Z,22.1
2018-09-26T05:52:45.047Z,22
2018-09-26T05:53:35.335Z,22
2018-09-26T05:54:24.372Z,21.9
2018-09-26T05:55:15.223Z,22.1
2018-09-26T05:56:04.655Z,22
2018-09-26T05:56:54.287Z,22
2018-09-26T05:57:44.607Z,22
2018-09-26T05:58:33.889Z,22
2018-09-26T05:59:25.396Z,22
2018-09-26T06:00:15.706Z,22
2018-09-26T06:01:06.792Z,22
2018-09-26T06:01:56.969Z,22
2018-09-26T06:02:45.343Z,22
2018-09-26T06:03:34.524Z,22
2018-09-26T06:04:25.611Z,22
2018-09-26T06:05:15.078Z,22
2018-09-26T06:06:06.057Z,22
2018-09-26T06:06:55.150Z,22
2018-09-26T06:07:44.868Z,22
2018-09-26T06:08:33.849Z,21.9
2018-09-26T06:09:25.818Z,22
2018-09-26T06:10:16.139Z,22
2018-09-26T06:11:06.216Z,22
2018-09-26T06:11:55.367Z,22
2018-09-26T06:12:47.067Z,22
2018-09-26T06:13:36.703Z,22
2018-09-26T06:14:25.741Z,22
2018-09-26T06:15:17.054Z,22.1
2018-09-26T06:16:07.062Z,22
2018-09-26T06:16:57.545Z,22
2018-09-26T06:17:46.283Z,22
2018-09-26T06:18:36.761Z,22
2018-09-26T06:19:26.223Z,22
2018-09-26T06:20:15.745Z,22
2018-09-26T06:21:05.753Z,22.1
2018-09-26T06:21:56.903Z,22
2018-09-26T06:22:46.510Z,22
2018-09-26T06:23:37.012Z,22
2018-09-26T06:24:26.058Z,22.1
2018-09-26T06:25:16.524Z,22.1
2018-09-26T06:26:06.895Z,22
2018-09-26T06:26:56.346Z,22
2018-09-26T06:27:47.200Z,22.1
2018-09-26T06:28:35.272Z,22.1
2018-09-26T06:29:27.282Z,22
2018-09-26T06:30:17.134Z,22.1
2018-09-26T06:31:07.449Z,22
2018-09-26T06:31:56.370Z,22.1
2018-09-26T06:32:46.632Z,22
2018-09-26T06:33:37.829Z,22.1
2018-09-26T06:34:27.121Z,22.1
2018-09-26T06:35:17.575Z,22.1
2018-09-26T06:36:08.289Z,22.1
2018-09-26T06:36:56.979Z,22
2018-09-26T06:37:47.807Z,22
2018-09-26T06:38:37.614Z,22
2018-09-26T06:39:28.328Z,22.1
2018-09-26T06:40:18.872Z,22.1
2018-09-26T06:41:06.706Z,22.1
2018-09-26T06:41:57.930Z,22.1
2018-09-26T06:42:47.732Z,22.1
2018-09-26T06:43:38.560Z,22.1
2018-09-26T06:44:27.837Z,22.1
2018-09-26T06:45:19.132Z,22
2018-09-26T06:46:08.626Z,22.1
2018-09-26T06:46:58.561Z,22.1
2018-09-26T06:47:48.974Z,22.1
2018-09-26T06:48:37.794Z,22.1
2018-09-26T06:49:28.663Z,22
2018-09-26T06:50:18.781Z,22.1
2018-09-26T06:51:08.516Z,22.1
2018-09-26T06:51:58.764Z,22.1
2018-09-26T06:52:49.271Z,22.1
2018-09-26T06:53:39.473Z,22.1
2018-09-26T06:54:29.326Z,22.1
2018-09-26T06:55:19.594Z,22
2018-09-26T06:56:08.886Z,22
2018-09-26T06:56:58.858Z,22
2018-09-26T06:57:49.070Z,21.9
2018-09-26T06:58:39.330Z,21.9
2018-09-26T06:59:29.483Z,21.9
2018-09-26T07:00:21.849Z,21.8
2018-09-26T07:01:08.971Z,21.8
2018-09-26T07:01:59.820Z,21.8
2018-09-26T07:02:49.703Z,21.8
2018-09-26T07:03:39.681Z,21.7
2018-09-26T07:04:29.978Z,21.7
2018-09-26T07:05:20.168Z,21.6
2018-09-26T07:06:09.890Z,21.5
2018-09-26T07:07:00.220Z,21.4
2018-09-26T07:07:50.213Z,21.4
2018-09-26T07:08:39.508Z,21.3
2018-09-26T07:09:30.332Z,21.3
2018-09-26T07:10:20.018Z,21.2
2018-09-26T07:11:11.027Z,21.1
2018-09-26T07:11:59.524Z,21
2018-09-26T07:12:49.781Z,20.9
2018-09-26T07:13:41.020Z,20.9
2018-09-26T07:14:30.774Z,20.9
2018-09-26T07:15:21.155Z,20.8
2018-09-26T07:16:10.837Z,20.7
2018-09-26T07:16:59.650Z,20.6
2018-09-26T07:17:51.555Z,20.6
2018-09-26T07:18:41.349Z,20.5
2018-09-26T07:19:30.634Z,20.4
2018-09-26T07:20:20.937Z,20.4
2018-09-26T07:21:11.572Z,20.3
2018-09-26T07:22:00.795Z,20.2
2018-09-26T07:22:50.832Z,20.1
2018-09-26T07:23:41.221Z,20.1
2018-09-26T07:24:31.001Z,20
2018-09-26T07:25:21.829Z,20
2018-09-26T07:26:10.226Z,19.9
2018-09-26T07:27:00.994Z,19.9
2018-09-26T07:27:51.751Z,19.8
2018-09-26T07:28:41.544Z,19.8
2018-09-26T07:29:32.056Z,19.8
2018-09-26T07:30:21.869Z,19.7
2018-09-26T07:31:12.279Z,19.6
2018-09-26T07:32:01.532Z,19.6
2018-09-26T07:32:52.469Z,19.6
2018-09-26T07:33:41.626Z,19.5
2018-09-26T07:34:32.241Z,19.5
2018-09-26T07:35:22.009Z,19.4
2018-09-26T07:36:12.131Z,19.4
2018-09-26T07:37:02.688Z,19.4
2018-09-26T07:37:52.472Z,19.3
2018-09-26T07:38:43.391Z,19.3
2018-09-26T07:39:32.819Z,19.3
2018-09-26T07:40:22.771Z,19.2
2018-09-26T07:41:12.116Z,19.1
2018-09-26T07:42:02.513Z,19.1
2018-09-26T07:42:50.093Z,19
2018-09-26T07:43:42.946Z,18.9
2018-09-26T07:44:31.599Z,18.9
2018-09-26T07:45:22.104Z,19
2018-09-26T07:46:10.911Z,18.9
2018-09-26T07:47:02.244Z,18.9
2018-09-26T07:47:51.332Z,18.9
2018-09-26T07:48:41.617Z,18.9
2018-09-26T07:49:31.506Z,18.9
2018-09-26T07:50:21.569Z,18.9
2018-09-26T07:51:10.633Z,18.8
2018-09-26T07:52:01.059Z,18.8
2018-09-26T07:52:51.459Z,18.8
2018-09-26T07:55:22.308Z,18.6
2018-09-26T08:05:23.075Z,18.8
2018-09-26T08:06:14.740Z,18.8
2018-09-26T08:07:03.524Z,18.8
2018-09-26T08:07:54.222Z,18.8
2018-09-26T08:08:43.977Z,18.8
2018-09-26T08:09:33.544Z,18.8
2018-09-26T08:10:24.091Z,18.9
2018-09-26T08:11:14.967Z,18.9
2018-09-26T08:12:05.442Z,18.9
2018-09-26T08:12:54.790Z,18.9
2018-09-26T08:13:44.884Z,18.9
2018-09-26T08:14:34.952Z,19
2018-09-26T08:15:24.029Z,19
2018-09-26T08:16:14.551Z,19
2018-09-26T08:17:04.136Z,19
2018-09-26T08:17:54.590Z,19.1
2018-09-26T08:18:47.615Z,19.1
2018-09-26T08:19:34.459Z,19.1
2018-09-26T08:20:25.111Z,19.1
2018-09-26T08:21:14.948Z,19.1
2018-09-26T08:22:05.663Z,19.1
2018-09-26T08:22:55.628Z,19.1
2018-09-26T08:23:46.756Z,19.2
2018-09-26T08:24:36.501Z,19.2
2018-09-26T08:25:24.599Z,19.3
2018-09-26T08:26:14.725Z,19.3
2018-09-26T08:27:06.660Z,19.3
2018-09-26T08:27:55.625Z,19.3
2018-09-26T08:28:45.645Z,19.3
2018-09-26T08:29:35.493Z,19.3
2018-09-26T08:30:25.853Z,19.3
2018-09-26T08:31:16.153Z,19.4
2018-09-26T08:32:06.198Z,19.4
2018-09-26T08:32:56.238Z,19.4
2018-09-26T08:33:45.826Z,19.4
2018-09-26T08:34:36.828Z,19.4
2018-09-26T08:35:26.933Z,19.4
2018-09-26T08:36:16.008Z,19.4
2018-09-26T08:37:07.080Z,19.5
2018-09-26T08:37:55.597Z,19.5
2018-09-26T08:38:46.292Z,19.5
2018-09-26T08:39:37.802Z,19.6
2018-09-26T08:40:27.365Z,19.5
2018-09-26T08:41:17.410Z,19.6
2018-09-26T08:42:07.244Z,19.6
2018-09-26T08:42:56.507Z,19.6
2018-09-26T08:43:47.148Z,19.6
2018-09-26T08:44:37.407Z,19.6
2018-09-26T08:45:27.735Z,19.6
2018-09-26T08:46:17.492Z,19.6
2018-09-26T08:47:07.593Z,19.6
2018-09-26T08:47:57.089Z,19.7
2018-09-26T08:48:48.249Z,19.8
2018-09-26T08:49:38.209Z,19.8
2018-09-26T08:50:28.259Z,19.8
2018-09-26T08:51:16.988Z,19.8
2018-09-26T08:52:07.207Z,19.8
2018-09-26T08:52:58.339Z,19.8
2018-09-26T08:53:49.899Z,19.8
2018-09-26T08:54:38.694Z,19.8
2018-09-26T08:55:27.928Z,19.9
2018-09-26T08:56:18.770Z,19.8
2018-09-26T08:57:07.851Z,19.9
2018-09-26T08:57:58.104Z,19.9
2018-09-26T08:58:48.129Z,19.9
2018-09-26T08:59:39.836Z,19.9
2018-09-26T09:00:28.458Z,19.9
2018-09-26T09:01:17.590Z,19.9
2018-09-26T09:02:08.081Z,19.9
2018-09-26T09:02:57.761Z,19.9
2018-09-26T09:03:48.771Z,19.9
2018-09-26T09:04:39.237Z,20
2018-09-26T09:05:28.881Z,19.9
2018-09-26T09:06:21.515Z,20
2018-09-26T09:07:08.485Z,19.9
2018-09-26T09:07:59.372Z,20
2018-09-26T09:08:49.232Z,20
2018-09-26T09:09:40.178Z,20
2018-09-26T09:10:29.573Z,20.1
2018-09-26T09:11:19.677Z,20
2018-09-26T09:12:09.100Z,20
2018-09-26T09:12:58.643Z,20.1
2018-09-26T09:13:49.755Z,20.1
2018-09-26T09:14:43.877Z,20.1
2018-09-26T09:15:30.403Z,20
2018-09-26T09:16:18.718Z,20.1
2018-09-26T09:17:09.410Z,20.1
2018-09-26T09:18:00.537Z,20.1
2018-09-26T09:18:50.029Z,20.1
2018-09-26T09:19:39.807Z,20.1
2018-09-26T09:20:30.498Z,20.2
2018-09-26T09:21:19.518Z,20.1
2018-09-26T09:22:09.305Z,20.1
2018-09-26T09:38:58.170Z,20.2
2018-09-26T09:39:47.894Z,20.3
2018-09-26T09:40:37.636Z,20.3
2018-09-26T09:41:26.867Z,20.3
2018-09-26T09:42:16.796Z,20.3
2018-09-26T09:43:07.546Z,20.3
2018-09-26T09:43:59.358Z,20.3
2018-09-26T09:44:48.240Z,20.3
2018-09-26T09:45:37.645Z,20.4
2018-09-26T09:46:27.488Z,20.3
2018-09-26T09:47:17.617Z,20.4
2018-09-26T09:48:08.179Z,20.4
2018-09-26T09:48:58.661Z,20.4
2018-09-26T09:49:47.888Z,20.4
2018-09-26T09:50:38.386Z,20.4
2018-09-26T09:51:28.894Z,20.4
2018-09-26T09:52:17.865Z,20.4
2018-09-26T09:53:08.580Z,20.4
2018-09-26T09:53:58.523Z,20.4
2018-09-26T09:54:48.369Z,20.4
2018-09-26T09:55:38.657Z,20.5
2018-09-26T09:56:29.726Z,20.4
2018-09-26T09:57:18.522Z,20.4
2018-09-26T09:58:08.917Z,20.5
2018-09-26T09:58:58.956Z,20.5
2018-09-26T09:59:49.045Z,20.5
2018-09-26T10:00:38.543Z,20.5
2018-09-26T10:01:29.783Z,20.5
2018-09-26T10:02:21.462Z,20.5
2018-09-26T10:03:12.158Z,20.5
2018-09-26T10:04:00.620Z,20.5
2018-09-26T10:04:49.329Z,20.6
2018-09-26T10:05:39.127Z,20.6
2018-09-26T10:06:29.180Z,20.5
2018-09-26T10:07:19.838Z,20.6
2018-09-26T10:08:09.629Z,20.6
2018-09-26T10:09:00.040Z,20.6
2018-09-26T10:09:49.819Z,20.6
2018-09-26T10:10:39.223Z,20.6
2018-09-26T10:11:30.123Z,20.6
2018-09-26T10:12:19.939Z,20.6
2018-09-26T10:13:09.920Z,20.6
2018-09-26T10:13:59.257Z,20.6
2018-09-26T10:14:50.084Z,20.6
2018-09-26T10:15:41.063Z,20.6
2018-09-26T10:16:30.509Z,20.6
2018-09-26T10:17:19.734Z,20.6
2018-09-26T10:18:10.370Z,20.6
2018-09-26T10:18:59.872Z,20.6
2018-09-26T10:19:50.256Z,20.6
2018-09-26T10:20:40.545Z,20.6
2018-09-26T10:21:30.433Z,20.6
2018-09-26T10:22:20.426Z,20.7
2018-09-26T10:23:10.167Z,20.7
2018-09-26T10:24:00.787Z,20.6
2018-09-26T10:24:51.434Z,20.7
2018-09-26T10:25:41.160Z,20.7
2018-09-26T10:26:32.459Z,20.7
2018-09-26T10:27:21.619Z,20.7
2018-09-26T10:28:10.849Z,20.7
2018-09-26T10:29:00.895Z,20.7
2018-09-26T10:29:51.089Z,20.7
2018-09-26T10:30:40.845Z,20.7
2018-09-26T10:31:32.126Z,20.7
2018-09-26T10:32:21.521Z,20.7
2018-09-26T10:33:12.110Z,20.7
2018-09-26T10:34:01.856Z,20.8
2018-09-26T10:34:50.815Z,20.8
2018-09-26T10:35:42.336Z,20.7
2018-09-26T10:36:32.336Z,20.8
2018-09-26T10:37:21.899Z,20.7
2018-09-26T10:38:12.744Z,20.8
2018-09-26T10:39:02.148Z,20.8
2018-09-26T10:39:51.823Z,20.8
2018-09-26T10:40:41.581Z,20.8
2018-09-26T10:41:32.098Z,20.8
2018-09-26T10:42:21.574Z,20.8
2018-09-26T10:43:11.956Z,20.8
2018-09-26T10:44:02.607Z,20.8
2018-09-26T10:44:53.190Z,20.8
2018-09-26T10:45:42.115Z,20.8
2018-09-26T10:46:33.637Z,20.8
2018-09-26T10:47:22.251Z,20.8
2018-09-26T10:48:12.025Z,20.8
2018-09-26T10:49:02.755Z,20.8
2018-09-26T10:49:52.625Z,20.8
2018-09-26T10:50:43.043Z,20.8
2018-09-26T10:51:33.373Z,20.8
2018-09-26T10:52:23.124Z,20.8
2018-09-26T10:53:12.483Z,20.8
2018-09-26T10:54:02.137Z,20.8
2018-09-26T10:54:53.007Z,20.8
2018-09-26T10:55:43.062Z,20.8
2018-09-26T10:56:34.914Z,20.8
2018-09-26T10:57:22.790Z,20.8
2018-09-26T10:58:13.762Z,20.8
2018-09-26T10:59:03.267Z,20.9
2018-09-26T10:59:53.398Z,20.8
2018-09-26T11:00:43.665Z,20.8
2018-09-26T11:01:34.110Z,20.8
2018-09-26T11:02:24.809Z,20.9
2018-09-26T11:03:13.412Z,20.9
2018-09-26T11:04:03.799Z,20.8
2018-09-26T11:04:53.800Z,20.9
2018-09-26T11:05:43.599Z,20.9
2018-09-26T11:06:34.231Z,20.9
2018-09-26T11:07:23.313Z,20.9
2018-09-26T11:08:15.232Z,20.9
2018-09-26T11:09:03.561Z,20.9
2018-09-26T11:09:54.153Z,20.9
2018-09-26T11:10:44.026Z,20.9
2018-09-26T11:11:33.693Z,20.9
2018-09-26T11:12:24.814Z,20.9
2018-09-26T11:13:14.701Z,20.9
2018-09-26T11:14:03.602Z,20.9
2018-09-26T11:14:53.391Z,20.9
2018-09-26T11:15:45.236Z,20.9
2018-09-26T11:16:35.498Z,20.9
2018-09-26T11:17:24.645Z,20.9
2018-09-26T11:18:15.403Z,20.9
2018-09-26T11:19:06.499Z,20.9
2018-09-26T11:19:54.595Z,20.9
2018-09-26T11:20:46.174Z,21
2018-09-26T11:21:34.183Z,20.9
2018-09-26T11:22:26.836Z,20.9
2018-09-26T11:23:15.484Z,20.9
2018-09-26T11:24:05.480Z,21
2018-09-26T11:24:55.543Z,21
2018-09-26T11:25:45.328Z,21
2018-09-26T11:26:36.946Z,21
2018-09-26T11:27:25.768Z,20.9
2018-09-26T11:28:16.496Z,21
2018-09-26T11:29:05.604Z,21
2018-09-26T11:29:55.931Z,21
2018-09-26T11:30:45.960Z,21
2018-09-26T11:31:36.371Z,20.9
2018-09-26T11:32:28.858Z,21
2018-09-26T11:33:16.860Z,21
2018-09-26T11:34:06.778Z,21
2018-09-26T11:34:56.040Z,21
2018-09-26T11:35:44.938Z,21.1
2018-09-26T11:36:36.173Z,21.1
2018-09-26T11:37:26.495Z,21
2018-09-26T11:38:17.590Z,21
2018-09-26T11:39:06.829Z,21.1
2018-09-26T11:39:56.689Z,21.1
2018-09-26T11:40:46.697Z,21.1
2018-09-26T11:41:36.316Z,21
2018-09-26T11:42:26.413Z,21.1
2018-09-26T11:43:17.124Z,21.1
2018-09-26T11:44:07.349Z,21.1
2018-09-26T11:44:58.422Z,21.1
2018-09-26T11:45:47.057Z,21.1
2018-09-26T11:46:37.395Z,21.1
2018-09-26T11:47:25.596Z,21.1
2018-09-26T11:48:16.728Z,21.1
2018-09-26T11:49:07.014Z,21.1
2018-09-26T11:49:57.125Z,21.1
2018-09-26T11:50:46.469Z,21.1
2018-09-26T11:51:37.248Z,21.1
2018-09-26T11:52:27.887Z,21.1
2018-09-26T11:53:17.590Z,21.1
2018-09-26T11:54:08.459Z,21.1
2018-09-26T11:54:56.521Z,21.1
2018-09-26T11:55:46.503Z,21.1
2018-09-26T12:03:17.298Z,21.2
2018-09-26T12:08:18.657Z,21.1
2018-09-26T12:09:07.898Z,21
2018-09-26T12:09:58.201Z,21.1
2018-09-26T12:10:48.141Z,21
2018-09-26T12:11:37.393Z,21
2018-09-26T12:12:30.101Z,20.9
2018-09-26T12:13:17.731Z,21
2018-09-26T12:14:09.150Z,20.9
2018-09-26T12:14:57.218Z,20.9
2018-09-26T12:15:47.927Z,20.9
2018-09-26T12:16:38.011Z,20.9
2018-09-26T12:17:27.830Z,20.9
2018-09-26T12:18:18.280Z,20.9
2018-09-26T12:19:09.230Z,20.9
2018-09-26T12:19:58.650Z,20.8
2018-09-26T12:20:48.893Z,20.9
2018-09-26T12:21:41.246Z,20.9
2018-09-26T12:22:29.692Z,20.8
2018-09-26T12:23:18.487Z,20.8